sensor_id;sensor_type;location;lat;lon;timestamp;P1;durP1;ratioP1;P2;durP2;ratioP2
52434;SDS011;38354;52.892;6.148;2023-07-02T04:00:37;31.23;;;8.03;;
52434;SDS011;38354;52.892;6.148;2023-07-02T04:03:03;25.73;;;8.32;;
52434;SDS011;38354;52.892;6.148;2023-07-02T04:05:29;27.45;;;7.97;;
52434;SDS011;38354;52.892;6.148;2023-07-02T04:07:55;27.27;;;8.23;;
52434;SDS011;38354;52.892;6.148;2023-07-02T04:10:20;25.38;;;8.05;;
52434;SDS011;38354;52.892;6.148;2023-07-02T04:12:46;20.77;;;8.25;;
52434;SDS011;38354;52.892;6.148;2023-07-02T04:15:12;26.52;;;8.13;;
52434;SDS011;38354;52.892;6.148;2023-07-02T04:17:37;22.55;;;7.90;;
52434;SDS011;38354;52.892;6.148;2023-07-02T04:20:03;21.88;;;7.45;;
52434;SDS011;38354;52.892;6.148;2023-07-02T04:22:29;28.10;;;8.73;;
52434;SDS011;38354;52.892;6.148;2023-07-02T04:24:55;24.63;;;8.23;;
52434;SDS011;38354;52.892;6.148;2023-07-02T04:27:21;24.92;;;8.52;;
52434;SDS011;38354;52.892;6.148;2023-07-02T04:29:47;33.30;;;9.45;;
52434;SDS011;38354;52.892;6.148;2023-07-02T04:32:12;28.42;;;8.90;;
52434;SDS011;38354;52.892;6.148;2023-07-02T04:34:38;25.80;;;7.65;;
52434;SDS011;38354;52.892;6.148;2023-07-02T04:37:04;27.63;;;7.90;;
52434;SDS011;38354;52.892;6.148;2023-07-02T04:39:30;29.70;;;8.52;;
52434;SDS011;38354;52.892;6.148;2023-07-02T04:41:56;29.20;;;8.75;;
52434;SDS011;38354;52.892;6.148;2023-07-02T04:44:22;22.35;;;6.93;;
52434;SDS011;38354;52.892;6.148;2023-07-02T04:46:55;23.40;;;7.50;;
52434;SDS011;38354;52.892;6.148;2023-07-02T04:49:24;23.83;;;7.68;;
52434;SDS011;38354;52.892;6.148;2023-07-02T04:51:50;23.77;;;7.22;;
52434;SDS011;38354;52.892;6.148;2023-07-02T04:54:16;20.65;;;6.70;;
52434;SDS011;38354;52.892;6.148;2023-07-02T04:56:41;19.90;;;6.78;;
52434;SDS011;38354;52.892;6.148;2023-07-02T04:59:07;21.77;;;6.40;;
52434;SDS011;38354;52.892;6.148;2023-07-02T05:01:32;19.15;;;6.60;;
52434;SDS011;38354;52.892;6.148;2023-07-02T05:03:58;26.38;;;6.70;;
52434;SDS011;38354;52.892;6.148;2023-07-02T05:06:29;21.17;;;6.57;;
52434;SDS011;38354;52.892;6.148;2023-07-02T05:08:54;24.88;;;6.45;;
52434;SDS011;38354;52.892;6.148;2023-07-02T05:11:20;21.75;;;7.18;;
52434;SDS011;38354;52.892;6.148;2023-07-02T05:13:45;26.88;;;6.47;;
52434;SDS011;38354;52.892;6.148;2023-07-02T05:16:11;20.73;;;6.60;;
52434;SDS011;38354;52.892;6.148;2023-07-02T05:18:37;27.45;;;7.30;;
52434;SDS011;38354;52.892;6.148;2023-07-02T05:21:02;21.63;;;6.78;;
52434;SDS011;38354;52.892;6.148;2023-07-02T05:23:28;27.48;;;6.82;;
52434;SDS011;38354;52.892;6.148;2023-07-02T05:25:53;27.90;;;7.43;;
52434;SDS011;38354;52.892;6.148;2023-07-02T05:28:19;23.50;;;7.18;;
52434;SDS011;38354;52.892;6.148;2023-07-02T05:30:45;22.95;;;7.28;;
52434;SDS011;38354;52.892;6.148;2023-07-02T05:33:10;25.90;;;7.38;;
52434;SDS011;38354;52.892;6.148;2023-07-02T05:35:36;26.80;;;7.47;;
52434;SDS011;38354;52.892;6.148;2023-07-02T05:38:01;28.75;;;6.68;;
52434;SDS011;38354;52.892;6.148;2023-07-02T05:40:27;18.63;;;6.90;;
52434;SDS011;38354;52.892;6.148;2023-07-02T05:42:53;26.15;;;6.85;;
52434;SDS011;38354;52.892;6.148;2023-07-02T05:45:18;19.48;;;6.55;;
52434;SDS011;38354;52.892;6.148;2023-07-02T05:47:44;23.48;;;6.68;;
52434;SDS011;38354;52.892;6.148;2023-07-02T05:50:10;23.27;;;7.15;;
52434;SDS011;38354;52.892;6.148;2023-07-02T05:52:35;24.92;;;7.90;;
52434;SDS011;38354;52.892;6.148;2023-07-02T05:55:01;33.33;;;7.70;;
52434;SDS011;38354;52.892;6.148;2023-07-02T05:57:27;21.95;;;6.80;;
52434;SDS011;38354;52.892;6.148;2023-07-02T05:59:52;23.05;;;6.78;;
52434;SDS011;38354;52.892;6.148;2023-07-02T06:02:18;20.23;;;7.25;;
52434;SDS011;38354;52.892;6.148;2023-07-02T06:04:43;18.92;;;6.18;;
52434;SDS011;38354;52.892;6.148;2023-07-02T06:07:09;20.90;;;6.15;;
52434;SDS011;38354;52.892;6.148;2023-07-02T06:09:35;22.90;;;7.28;;
52434;SDS011;38354;52.892;6.148;2023-07-02T06:12:00;19.13;;;6.05;;
52434;SDS011;38354;52.892;6.148;2023-07-02T06:14:26;17.30;;;6.22;;
52434;SDS011;38354;52.892;6.148;2023-07-02T06:16:52;21.98;;;7.15;;
52434;SDS011;38354;52.892;6.148;2023-07-02T06:19:18;21.60;;;6.80;;
52434;SDS011;38354;52.892;6.148;2023-07-02T06:21:43;19.42;;;6.80;;
52434;SDS011;38354;52.892;6.148;2023-07-02T06:24:09;22.80;;;6.55;;
52434;SDS011;38354;52.892;6.148;2023-07-02T06:26:34;19.50;;;6.07;;
52434;SDS011;38354;52.892;6.148;2023-07-02T06:29:00;20.02;;;6.25;;
52434;SDS011;38354;52.892;6.148;2023-07-02T06:31:26;19.08;;;6.07;;
52434;SDS011;38354;52.892;6.148;2023-07-02T06:33:51;16.50;;;5.88;;
52434;SDS011;38354;52.892;6.148;2023-07-02T06:36:18;16.27;;;5.40;;
52434;SDS011;38354;52.892;6.148;2023-07-02T06:38:44;17.17;;;5.68;;
52434;SDS011;38354;52.892;6.148;2023-07-02T06:41:10;15.10;;;5.30;;
52434;SDS011;38354;52.892;6.148;2023-07-02T06:43:35;17.83;;;5.43;;
52434;SDS011;38354;52.892;6.148;2023-07-02T06:46:01;16.23;;;4.90;;
52434;SDS011;38354;52.892;6.148;2023-07-02T06:48:27;16.30;;;5.00;;
52434;SDS011;38354;52.892;6.148;2023-07-02T06:50:53;19.98;;;5.50;;
52434;SDS011;38354;52.892;6.148;2023-07-02T06:53:18;19.00;;;5.53;;
52434;SDS011;38354;52.892;6.148;2023-07-02T06:55:44;20.58;;;6.15;;
52434;SDS011;38354;52.892;6.148;2023-07-02T06:58:09;19.45;;;4.22;;
52434;SDS011;38354;52.892;6.148;2023-07-02T07:00:35;18.13;;;4.72;;
52434;SDS011;38354;52.892;6.148;2023-07-02T07:03:04;16.48;;;3.95;;
52434;SDS011;38354;52.892;6.148;2023-07-02T07:05:30;22.17;;;4.22;;
52434;SDS011;38354;52.892;6.148;2023-07-02T07:07:57;18.45;;;4.05;;
52434;SDS011;38354;52.892;6.148;2023-07-02T07:10:24;13.68;;;4.13;;
52434;SDS011;38354;52.892;6.148;2023-07-02T07:12:50;15.73;;;4.57;;
52434;SDS011;38354;52.892;6.148;2023-07-02T07:15:16;16.65;;;4.28;;
52434;SDS011;38354;52.892;6.148;2023-07-02T07:17:41;14.80;;;4.50;;
52434;SDS011;38354;52.892;6.148;2023-07-02T07:20:07;15.65;;;5.13;;
52434;SDS011;38354;52.892;6.148;2023-07-02T07:22:33;15.98;;;4.13;;
52434;SDS011;38354;52.892;6.148;2023-07-02T07:24:59;12.75;;;4.07;;
52434;SDS011;38354;52.892;6.148;2023-07-02T07:27:25;15.95;;;4.18;;
52434;SDS011;38354;52.892;6.148;2023-07-02T07:29:50;11.77;;;3.30;;
52434;SDS011;38354;52.892;6.148;2023-07-02T07:32:16;14.32;;;3.97;;
52434;SDS011;38354;52.892;6.148;2023-07-02T07:34:42;14.63;;;3.97;;
52434;SDS011;38354;52.892;6.148;2023-07-02T07:37:07;12.48;;;3.35;;
52434;SDS011;38354;52.892;6.148;2023-07-02T07:39:33;14.27;;;4.15;;
52434;SDS011;38354;52.892;6.148;2023-07-02T07:41:59;16.17;;;4.05;;
52434;SDS011;38354;52.892;6.148;2023-07-02T07:44:24;8.82;;;2.85;;
52434;SDS011;38354;52.892;6.148;2023-07-02T07:46:57;12.20;;;3.60;;
52434;SDS011;38354;52.892;6.148;2023-07-02T07:49:22;18.05;;;3.55;;
52434;SDS011;38354;52.892;6.148;2023-07-02T07:51:48;9.68;;;3.35;;
52434;SDS011;38354;52.892;6.148;2023-07-02T07:54:14;11.43;;;3.42;;
52434;SDS011;38354;52.892;6.148;2023-07-02T07:56:39;18.80;;;4.28;;
52434;SDS011;38354;52.892;6.148;2023-07-02T07:59:05;14.20;;;3.60;;
52434;SDS011;38354;52.892;6.148;2023-07-02T08:01:31;11.07;;;4.10;;
52434;SDS011;38354;52.892;6.148;2023-07-02T08:03:56;14.95;;;3.50;;
52434;SDS011;38354;52.892;6.148;2023-07-02T08:06:22;14.38;;;3.33;;
52434;SDS011;38354;52.892;6.148;2023-07-02T08:08:47;19.95;;;5.72;;
52434;SDS011;38354;52.892;6.148;2023-07-02T08:11:13;12.23;;;3.70;;
52434;SDS011;38354;52.892;6.148;2023-07-02T08:13:39;10.63;;;3.90;;
52434;SDS011;38354;52.892;6.148;2023-07-02T08:16:04;10.73;;;3.95;;
52434;SDS011;38354;52.892;6.148;2023-07-02T08:18:30;13.05;;;4.03;;
52434;SDS011;38354;52.892;6.148;2023-07-02T08:20:56;13.25;;;4.75;;
52434;SDS011;38354;52.892;6.148;2023-07-02T08:23:21;10.48;;;3.80;;
52434;SDS011;38354;52.892;6.148;2023-07-02T08:25:47;14.75;;;3.90;;
52434;SDS011;38354;52.892;6.148;2023-07-02T08:28:13;13.57;;;4.00;;
52434;SDS011;38354;52.892;6.148;2023-07-02T08:30:38;13.02;;;4.25;;
52434;SDS011;38354;52.892;6.148;2023-07-02T08:33:04;12.65;;;4.43;;
52434;SDS011;38354;52.892;6.148;2023-07-02T08:35:29;9.77;;;3.30;;
52434;SDS011;38354;52.892;6.148;2023-07-02T08:37:55;12.60;;;5.18;;
52434;SDS011;38354;52.892;6.148;2023-07-02T08:40:21;19.83;;;4.90;;
52434;SDS011;38354;52.892;6.148;2023-07-02T08:42:47;14.43;;;4.75;;
52434;SDS011;38354;52.892;6.148;2023-07-02T08:45:16;14.95;;;4.20;;
52434;SDS011;38354;52.892;6.148;2023-07-02T08:47:43;17.15;;;4.72;;
52434;SDS011;38354;52.892;6.148;2023-07-02T08:50:11;16.38;;;5.72;;
52434;SDS011;38354;52.892;6.148;2023-07-02T08:52:40;15.18;;;4.47;;
52434;SDS011;38354;52.892;6.148;2023-07-02T08:55:06;11.65;;;3.65;;
52434;SDS011;38354;52.892;6.148;2023-07-02T08:57:32;13.13;;;4.53;;
52434;SDS011;38354;52.892;6.148;2023-07-02T08:59:58;13.18;;;3.90;;
52434;SDS011;38354;52.892;6.148;2023-07-02T09:02:33;14.85;;;4.55;;
52434;SDS011;38354;52.892;6.148;2023-07-02T09:04:59;10.85;;;4.15;;
52434;SDS011;38354;52.892;6.148;2023-07-02T09:07:25;13.60;;;4.28;;
52434;SDS011;38354;52.892;6.148;2023-07-02T09:09:51;14.48;;;3.90;;
52434;SDS011;38354;52.892;6.148;2023-07-02T09:12:26;20.17;;;4.88;;
52434;SDS011;38354;52.892;6.148;2023-07-02T09:14:57;13.73;;;4.35;;
52434;SDS011;38354;52.892;6.148;2023-07-02T09:17:32;12.07;;;3.92;;
52434;SDS011;38354;52.892;6.148;2023-07-02T09:20:00;13.77;;;4.00;;
52434;SDS011;38354;52.892;6.148;2023-07-02T09:22:27;10.65;;;3.85;;
52434;SDS011;38354;52.892;6.148;2023-07-02T09:24:54;12.48;;;3.78;;
52434;SDS011;38354;52.892;6.148;2023-07-02T09:27:32;12.55;;;4.05;;
52434;SDS011;38354;52.892;6.148;2023-07-02T09:30:05;15.13;;;3.42;;
52434;SDS011;38354;52.892;6.148;2023-07-02T09:32:44;10.55;;;3.13;;
52434;SDS011;38354;52.892;6.148;2023-07-02T09:35:10;14.25;;;3.33;;
52434;SDS011;38354;52.892;6.148;2023-07-02T09:37:36;11.13;;;3.80;;
52434;SDS011;38354;52.892;6.148;2023-07-02T09:40:04;12.48;;;4.22;;
52434;SDS011;38354;52.892;6.148;2023-07-02T09:42:32;14.80;;;4.13;;
52434;SDS011;38354;52.892;6.148;2023-07-02T09:45:00;13.75;;;4.80;;
52434;SDS011;38354;52.892;6.148;2023-07-02T09:47:27;15.55;;;4.63;;
52434;SDS011;38354;52.892;6.148;2023-07-02T09:50:05;13.30;;;4.05;;
52434;SDS011;38354;52.892;6.148;2023-07-02T09:52:33;12.75;;;3.90;;
52434;SDS011;38354;52.892;6.148;2023-07-02T09:54:59;17.77;;;4.20;;
52434;SDS011;38354;52.892;6.148;2023-07-02T09:57:25;17.58;;;4.35;;
52434;SDS011;38354;52.892;6.148;2023-07-02T09:59:52;15.82;;;4.40;;
52434;SDS011;38354;52.892;6.148;2023-07-02T10:02:18;13.55;;;3.70;;
52434;SDS011;38354;52.892;6.148;2023-07-02T10:04:44;13.25;;;3.72;;
52434;SDS011;38354;52.892;6.148;2023-07-02T10:07:11;13.27;;;3.65;;
52434;SDS011;38354;52.892;6.148;2023-07-02T10:09:39;10.07;;;3.33;;
52434;SDS011;38354;52.892;6.148;2023-07-02T10:12:18;14.20;;;3.83;;
52434;SDS011;38354;52.892;6.148;2023-07-02T10:14:49;12.73;;;3.90;;
52434;SDS011;38354;52.892;6.148;2023-07-02T10:17:26;15.68;;;3.40;;
52434;SDS011;38354;52.892;6.148;2023-07-02T10:19:57;13.02;;;3.60;;
52434;SDS011;38354;52.892;6.148;2023-07-02T10:22:24;10.07;;;3.15;;
52434;SDS011;38354;52.892;6.148;2023-07-02T10:24:50;12.90;;;3.60;;
52434;SDS011;38354;52.892;6.148;2023-07-02T10:27:18;13.30;;;4.00;;
52434;SDS011;38354;52.892;6.148;2023-07-02T10:29:49;12.93;;;3.55;;
52434;SDS011;38354;52.892;6.148;2023-07-02T10:32:25;12.45;;;3.45;;
52434;SDS011;38354;52.892;6.148;2023-07-02T10:34:53;15.93;;;3.60;;
52434;SDS011;38354;52.892;6.148;2023-07-02T10:37:18;14.65;;;4.30;;
52434;SDS011;38354;52.892;6.148;2023-07-02T10:39:44;11.50;;;3.70;;
52434;SDS011;38354;52.892;6.148;2023-07-02T10:42:10;13.45;;;4.28;;
52434;SDS011;38354;52.892;6.148;2023-07-02T10:44:49;11.68;;;3.75;;
52434;SDS011;38354;52.892;6.148;2023-07-02T10:47:16;15.18;;;4.18;;
52434;SDS011;38354;52.892;6.148;2023-07-02T10:49:42;14.20;;;3.95;;
52434;SDS011;38354;52.892;6.148;2023-07-02T10:52:08;15.23;;;4.28;;
52434;SDS011;38354;52.892;6.148;2023-07-02T10:54:42;13.25;;;4.05;;
52434;SDS011;38354;52.892;6.148;2023-07-02T10:57:09;12.40;;;4.13;;
52434;SDS011;38354;52.892;6.148;2023-07-02T10:59:38;16.08;;;4.00;;
52434;SDS011;38354;52.892;6.148;2023-07-02T11:02:03;14.98;;;4.20;;
52434;SDS011;38354;52.892;6.148;2023-07-02T11:04:30;13.82;;;4.35;;
52434;SDS011;38354;52.892;6.148;2023-07-02T11:06:56;9.43;;;3.08;;
52434;SDS011;38354;52.892;6.148;2023-07-02T11:09:22;14.43;;;3.47;;
52434;SDS011;38354;52.892;6.148;2023-07-02T11:12:01;9.93;;;3.05;;
52434;SDS011;38354;52.892;6.148;2023-07-02T11:14:30;10.15;;;3.50;;
52434;SDS011;38354;52.892;6.148;2023-07-02T11:16:58;14.93;;;3.90;;
52434;SDS011;38354;52.892;6.148;2023-07-02T11:19:25;13.25;;;3.00;;
52434;SDS011;38354;52.892;6.148;2023-07-02T11:21:51;20.60;;;3.75;;
52434;SDS011;38354;52.892;6.148;2023-07-02T11:24:26;15.35;;;3.42;;
52434;SDS011;38354;52.892;6.148;2023-07-02T11:26:53;14.60;;;2.97;;
52434;SDS011;38354;52.892;6.148;2023-07-02T11:29:18;8.82;;;2.38;;
52434;SDS011;38354;52.892;6.148;2023-07-02T11:31:44;9.05;;;2.60;;
52434;SDS011;38354;52.892;6.148;2023-07-02T11:34:13;11.13;;;2.85;;
52434;SDS011;38354;52.892;6.148;2023-07-02T11:36:46;8.55;;;2.75;;
52434;SDS011;38354;52.892;6.148;2023-07-02T11:39:12;11.00;;;2.63;;
52434;SDS011;38354;52.892;6.148;2023-07-02T11:41:41;8.52;;;2.42;;
52434;SDS011;38354;52.892;6.148;2023-07-02T11:44:08;10.98;;;2.63;;
52434;SDS011;38354;52.892;6.148;2023-07-02T11:46:34;10.00;;;3.03;;
52434;SDS011;38354;52.892;6.148;2023-07-02T11:49:00;9.55;;;2.72;;
52434;SDS011;38354;52.892;6.148;2023-07-02T11:51:27;11.40;;;2.42;;
52434;SDS011;38354;52.892;6.148;2023-07-02T11:53:52;10.77;;;3.17;;
52434;SDS011;38354;52.892;6.148;2023-07-02T11:56:18;11.52;;;2.60;;
52434;SDS011;38354;52.892;6.148;2023-07-02T11:58:44;11.57;;;2.90;;
52434;SDS011;38354;52.892;6.148;2023-07-02T12:01:09;11.20;;;2.90;;
52434;SDS011;38354;52.892;6.148;2023-07-02T12:03:35;7.15;;;2.20;;
52434;SDS011;38354;52.892;6.148;2023-07-02T12:06:00;10.02;;;2.95;;
52434;SDS011;38354;52.892;6.148;2023-07-02T12:08:26;9.50;;;2.53;;
52434;SDS011;38354;52.892;6.148;2023-07-02T12:10:52;10.88;;;2.80;;
52434;SDS011;38354;52.892;6.148;2023-07-02T12:13:18;12.48;;;2.80;;
52434;SDS011;38354;52.892;6.148;2023-07-02T12:15:46;10.07;;;2.85;;
52434;SDS011;38354;52.892;6.148;2023-07-02T12:18:12;7.47;;;2.95;;
52434;SDS011;38354;52.892;6.148;2023-07-02T12:20:39;11.05;;;3.08;;
52434;SDS011;38354;52.892;6.148;2023-07-02T12:23:05;11.10;;;3.00;;
52434;SDS011;38354;52.892;6.148;2023-07-02T12:25:31;13.68;;;3.53;;
52434;SDS011;38354;52.892;6.148;2023-07-02T12:27:56;9.20;;;3.08;;
52434;SDS011;38354;52.892;6.148;2023-07-02T12:30:22;9.77;;;3.25;;
52434;SDS011;38354;52.892;6.148;2023-07-02T12:32:48;9.60;;;3.30;;
52434;SDS011;38354;52.892;6.148;2023-07-02T12:35:13;11.05;;;3.40;;
52434;SDS011;38354;52.892;6.148;2023-07-02T12:37:46;14.40;;;4.18;;
52434;SDS011;38354;52.892;6.148;2023-07-02T12:40:14;13.73;;;3.95;;
52434;SDS011;38354;52.892;6.148;2023-07-02T12:42:41;9.85;;;4.50;;
52434;SDS011;38354;52.892;6.148;2023-07-02T12:45:07;13.40;;;4.00;;
52434;SDS011;38354;52.892;6.148;2023-07-02T12:47:34;11.48;;;3.88;;
52434;SDS011;38354;52.892;6.148;2023-07-02T12:49:59;11.85;;;4.07;;
52434;SDS011;38354;52.892;6.148;2023-07-02T12:52:25;8.85;;;4.00;;
52434;SDS011;38354;52.892;6.148;2023-07-02T12:54:51;13.88;;;4.95;;
52434;SDS011;38354;52.892;6.148;2023-07-02T12:57:17;13.18;;;3.88;;
52434;SDS011;38354;52.892;6.148;2023-07-02T12:59:43;11.77;;;4.53;;
52434;SDS011;38354;52.892;6.148;2023-07-02T13:02:09;10.77;;;4.40;;
52434;SDS011;38354;52.892;6.148;2023-07-02T13:04:35;11.65;;;4.40;;
52434;SDS011;38354;52.892;6.148;2023-07-02T13:07:01;9.25;;;4.05;;
52434;SDS011;38354;52.892;6.148;2023-07-02T13:09:27;9.75;;;4.07;;
52434;SDS011;38354;52.892;6.148;2023-07-02T13:11:52;13.02;;;4.13;;
52434;SDS011;38354;52.892;6.148;2023-07-02T13:14:18;8.02;;;3.67;;
52434;SDS011;38354;52.892;6.148;2023-07-02T13:16:44;11.95;;;3.92;;
52434;SDS011;38354;52.892;6.148;2023-07-02T13:19:09;10.20;;;3.55;;
52434;SDS011;38354;52.892;6.148;2023-07-02T13:21:36;11.15;;;4.40;;
52434;SDS011;38354;52.892;6.148;2023-07-02T13:24:02;9.05;;;3.97;;
52434;SDS011;38354;52.892;6.148;2023-07-02T13:26:27;15.25;;;4.35;;
52434;SDS011;38354;52.892;6.148;2023-07-02T13:28:53;10.70;;;3.85;;
52434;SDS011;38354;52.892;6.148;2023-07-02T13:31:19;9.65;;;3.80;;
52434;SDS011;38354;52.892;6.148;2023-07-02T13:33:44;10.52;;;4.75;;
52434;SDS011;38354;52.892;6.148;2023-07-02T13:36:11;16.00;;;4.15;;
52434;SDS011;38354;52.892;6.148;2023-07-02T13:38:37;10.20;;;3.75;;
52434;SDS011;38354;52.892;6.148;2023-07-02T13:41:03;9.20;;;4.22;;
52434;SDS011;38354;52.892;6.148;2023-07-02T13:43:28;11.32;;;4.50;;
52434;SDS011;38354;52.892;6.148;2023-07-02T13:45:54;11.32;;;4.10;;
52434;SDS011;38354;52.892;6.148;2023-07-02T13:48:20;10.68;;;4.38;;
52434;SDS011;38354;52.892;6.148;2023-07-02T13:50:46;11.05;;;4.50;;
52434;SDS011;38354;52.892;6.148;2023-07-02T13:53:11;12.85;;;4.18;;
52434;SDS011;38354;52.892;6.148;2023-07-02T13:55:39;12.32;;;4.15;;
52434;SDS011;38354;52.892;6.148;2023-07-02T13:58:05;10.63;;;4.53;;
52434;SDS011;38354;52.892;6.148;2023-07-02T14:00:31;9.30;;;3.83;;
52434;SDS011;38354;52.892;6.148;2023-07-02T14:02:56;11.98;;;4.63;;
52434;SDS011;38354;52.892;6.148;2023-07-02T14:05:23;10.57;;;3.67;;
52434;SDS011;38354;52.892;6.148;2023-07-02T14:07:48;11.25;;;4.15;;
52434;SDS011;38354;52.892;6.148;2023-07-02T14:10:14;9.60;;;3.85;;
52434;SDS011;38354;52.892;6.148;2023-07-02T14:12:40;8.82;;;4.13;;
52434;SDS011;38354;52.892;6.148;2023-07-02T14:15:07;11.13;;;4.07;;
52434;SDS011;38354;52.892;6.148;2023-07-02T14:17:33;16.23;;;4.50;;
52434;SDS011;38354;52.892;6.148;2023-07-02T14:20:00;13.18;;;4.47;;
52434;SDS011;38354;52.892;6.148;2023-07-02T14:22:26;7.45;;;3.55;;
52434;SDS011;38354;52.892;6.148;2023-07-02T14:24:52;8.75;;;3.88;;
52434;SDS011;38354;52.892;6.148;2023-07-02T14:27:17;11.63;;;3.83;;
52434;SDS011;38354;52.892;6.148;2023-07-02T14:29:43;10.30;;;4.07;;
52434;SDS011;38354;52.892;6.148;2023-07-02T14:32:09;14.32;;;3.97;;
52434;SDS011;38354;52.892;6.148;2023-07-02T14:34:34;9.07;;;3.53;;
52434;SDS011;38354;52.892;6.148;2023-07-02T14:37:01;11.13;;;4.18;;
52434;SDS011;38354;52.892;6.148;2023-07-02T14:39:28;12.48;;;4.32;;
52434;SDS011;38354;52.892;6.148;2023-07-02T14:41:53;9.43;;;3.85;;
52434;SDS011;38354;52.892;6.148;2023-07-02T14:44:19;11.23;;;4.50;;
52434;SDS011;38354;52.892;6.148;2023-07-02T14:46:45;9.13;;;3.25;;
52434;SDS011;38354;52.892;6.148;2023-07-02T14:49:10;11.75;;;3.70;;
52434;SDS011;38354;52.892;6.148;2023-07-02T14:51:36;12.80;;;4.00;;
52434;SDS011;38354;52.892;6.148;2023-07-02T14:54:02;9.85;;;3.72;;
52434;SDS011;38354;52.892;6.148;2023-07-02T14:56:29;11.45;;;4.05;;
52434;SDS011;38354;52.892;6.148;2023-07-02T14:58:55;8.10;;;3.58;;
52434;SDS011;38354;52.892;6.148;2023-07-02T15:01:21;7.82;;;3.60;;
52434;SDS011;38354;52.892;6.148;2023-07-02T15:03:47;7.70;;;3.40;;
52434;SDS011;38354;52.892;6.148;2023-07-02T15:06:13;9.32;;;3.35;;
52434;SDS011;38354;52.892;6.148;2023-07-02T15:08:41;8.77;;;3.28;;
52434;SDS011;38354;52.892;6.148;2023-07-02T15:11:07;9.88;;;2.92;;
52434;SDS011;38354;52.892;6.148;2023-07-02T15:13:34;12.40;;;3.40;;
52434;SDS011;38354;52.892;6.148;2023-07-02T15:16:00;9.32;;;3.08;;
52434;SDS011;38354;52.892;6.148;2023-07-02T15:18:26;9.32;;;3.47;;
52434;SDS011;38354;52.892;6.148;2023-07-02T15:20:53;8.00;;;3.45;;
52434;SDS011;38354;52.892;6.148;2023-07-02T15:23:20;12.68;;;3.42;;
52434;SDS011;38354;52.892;6.148;2023-07-02T15:25:52;13.45;;;3.70;;
52434;SDS011;38354;52.892;6.148;2023-07-02T15:28:19;10.13;;;3.65;;
52434;SDS011;38354;52.892;6.148;2023-07-02T15:30:46;9.48;;;3.20;;
52434;SDS011;38354;52.892;6.148;2023-07-02T15:33:16;11.07;;;3.70;;
52434;SDS011;38354;52.892;6.148;2023-07-02T15:35:41;11.32;;;3.90;;
52434;SDS011;38354;52.892;6.148;2023-07-02T15:38:07;13.52;;;3.67;;
52434;SDS011;38354;52.892;6.148;2023-07-02T15:40:32;11.82;;;3.95;;
52434;SDS011;38354;52.892;6.148;2023-07-02T15:42:58;16.15;;;4.18;;
52434;SDS011;38354;52.892;6.148;2023-07-02T15:45:24;8.48;;;3.45;;
52434;SDS011;38354;52.892;6.148;2023-07-02T15:47:49;11.10;;;3.83;;
52434;SDS011;38354;52.892;6.148;2023-07-02T15:50:15;8.65;;;3.53;;
52434;SDS011;38354;52.892;6.148;2023-07-02T15:52:41;11.35;;;3.97;;
52434;SDS011;38354;52.892;6.148;2023-07-02T15:55:07;9.52;;;3.80;;
52434;SDS011;38354;52.892;6.148;2023-07-02T15:57:32;11.68;;;4.50;;
52434;SDS011;38354;52.892;6.148;2023-07-02T15:59:58;11.30;;;4.07;;
52434;SDS011;38354;52.892;6.148;2023-07-02T16:02:24;10.75;;;3.80;;
52434;SDS011;38354;52.892;6.148;2023-07-02T16:04:49;8.20;;;3.55;;
52434;SDS011;38354;52.892;6.148;2023-07-02T16:07:15;13.27;;;4.82;;
52434;SDS011;38354;52.892;6.148;2023-07-02T16:09:41;9.68;;;3.90;;
52434;SDS011;38354;52.892;6.148;2023-07-02T16:12:07;12.73;;;4.03;;
52434;SDS011;38354;52.892;6.148;2023-07-02T16:14:33;8.75;;;3.70;;
52434;SDS011;38354;52.892;6.148;2023-07-02T16:17:01;8.40;;;3.75;;
52434;SDS011;38354;52.892;6.148;2023-07-02T16:19:26;9.68;;;4.43;;
52434;SDS011;38354;52.892;6.148;2023-07-02T16:21:52;10.82;;;4.25;;
52434;SDS011;38354;52.892;6.148;2023-07-02T16:24:19;10.70;;;3.83;;
52434;SDS011;38354;52.892;6.148;2023-07-02T16:26:48;15.13;;;4.50;;
52434;SDS011;38354;52.892;6.148;2023-07-02T16:29:14;8.57;;;3.83;;
52434;SDS011;38354;52.892;6.148;2023-07-02T16:31:44;13.00;;;4.45;;
52434;SDS011;38354;52.892;6.148;2023-07-02T16:34:13;11.43;;;3.92;;
52434;SDS011;38354;52.892;6.148;2023-07-02T16:36:43;14.60;;;4.68;;
52434;SDS011;38354;52.892;6.148;2023-07-02T16:39:11;7.38;;;4.10;;
52434;SDS011;38354;52.892;6.148;2023-07-02T16:41:37;10.00;;;4.40;;
52434;SDS011;38354;52.892;6.148;2023-07-02T16:44:11;12.07;;;3.97;;
52434;SDS011;38354;52.892;6.148;2023-07-02T16:46:45;13.60;;;3.88;;
52434;SDS011;38354;52.892;6.148;2023-07-02T16:49:11;11.18;;;4.57;;
52434;SDS011;38354;52.892;6.148;2023-07-02T16:51:37;11.23;;;4.53;;
52434;SDS011;38354;52.892;6.148;2023-07-02T16:54:07;12.10;;;4.13;;
52434;SDS011;38354;52.892;6.148;2023-07-02T16:56:34;9.18;;;3.97;;
52434;SDS011;38354;52.892;6.148;2023-07-02T16:59:01;13.50;;;4.32;;
52434;SDS011;38354;52.892;6.148;2023-07-02T17:01:27;8.65;;;4.38;;
52434;SDS011;38354;52.892;6.148;2023-07-02T17:03:53;8.43;;;3.80;;
52434;SDS011;38354;52.892;6.148;2023-07-02T17:06:18;10.63;;;4.88;;
52434;SDS011;38354;52.892;6.148;2023-07-02T17:08:44;10.10;;;4.32;;
52434;SDS011;38354;52.892;6.148;2023-07-02T17:11:10;12.63;;;4.07;;
52434;SDS011;38354;52.892;6.148;2023-07-02T17:13:37;13.35;;;4.18;;
52434;SDS011;38354;52.892;6.148;2023-07-02T17:16:03;12.65;;;3.97;;
52434;SDS011;38354;52.892;6.148;2023-07-02T17:18:31;10.88;;;4.10;;
52434;SDS011;38354;52.892;6.148;2023-07-02T17:20:57;9.88;;;3.97;;
52434;SDS011;38354;52.892;6.148;2023-07-02T17:23:23;8.68;;;3.97;;
52434;SDS011;38354;52.892;6.148;2023-07-02T17:25:49;8.48;;;3.90;;
52434;SDS011;38354;52.892;6.148;2023-07-02T17:28:15;8.57;;;3.83;;
52434;SDS011;38354;52.892;6.148;2023-07-02T17:30:42;13.02;;;4.03;;
52434;SDS011;38354;52.892;6.148;2023-07-02T17:33:09;10.73;;;4.35;;
52434;SDS011;38354;52.892;6.148;2023-07-02T17:35:41;10.68;;;3.78;;
52434;SDS011;38354;52.892;6.148;2023-07-02T17:38:07;12.77;;;4.15;;
52434;SDS011;38354;52.892;6.148;2023-07-02T17:40:38;12.75;;;3.72;;
52434;SDS011;38354;52.892;6.148;2023-07-02T17:43:04;8.68;;;3.60;;
52434;SDS011;38354;52.892;6.148;2023-07-02T17:45:30;7.60;;;3.55;;
52434;SDS011;38354;52.892;6.148;2023-07-02T17:47:56;9.10;;;3.63;;
52434;SDS011;38354;52.892;6.148;2023-07-02T17:50:21;9.75;;;3.90;;
52434;SDS011;38354;52.892;6.148;2023-07-02T17:52:47;6.72;;;3.33;;
52434;SDS011;38354;52.892;6.148;2023-07-02T17:55:13;10.05;;;3.45;;
52434;SDS011;38354;52.892;6.148;2023-07-02T17:57:38;10.52;;;3.35;;
52434;SDS011;38354;52.892;6.148;2023-07-02T18:00:05;10.05;;;3.78;;
52434;SDS011;38354;52.892;6.148;2023-07-02T18:02:32;12.48;;;3.92;;
52434;SDS011;38354;52.892;6.148;2023-07-02T18:04:58;11.02;;;4.00;;
52434;SDS011;38354;52.892;6.148;2023-07-02T18:07:24;10.27;;;3.90;;
52434;SDS011;38354;52.892;6.148;2023-07-02T18:09:50;8.70;;;3.53;;
52434;SDS011;38354;52.892;6.148;2023-07-02T18:12:17;11.55;;;3.70;;
52434;SDS011;38354;52.892;6.148;2023-07-02T18:14:45;10.32;;;4.22;;
52434;SDS011;38354;52.892;6.148;2023-07-02T18:17:11;12.45;;;4.35;;
52434;SDS011;38354;52.892;6.148;2023-07-02T18:19:37;12.80;;;4.32;;
52434;SDS011;38354;52.892;6.148;2023-07-02T18:22:03;10.80;;;3.58;;
52434;SDS011;38354;52.892;6.148;2023-07-02T18:24:30;12.38;;;4.45;;
52434;SDS011;38354;52.892;6.148;2023-07-02T18:26:58;11.68;;;4.35;;
52434;SDS011;38354;52.892;6.148;2023-07-02T18:29:25;11.57;;;4.40;;
52434;SDS011;38354;52.892;6.148;2023-07-02T18:31:50;16.77;;;5.72;;